createdAt,value
2018-02-27T00:00:11.649Z,-2.9
2018-02-27T00:01:13.032Z,-2.8
2018-02-27T00:02:14.422Z,-2.9
2018-02-27T00:03:15.803Z,-2.8
2018-02-27T00:04:17.193Z,-3.0
2018-02-27T00:05:18.566Z,-2.9
2018-02-27T00:06:19.965Z,-2.9
2018-02-27T00:07:21.353Z,-2.9
2018-02-27T00:08:22.735Z,-3.0
2018-02-27T00:09:24.147Z,-2.9
2018-02-27T00:10:25.532Z,-3.0
2018-02-27T00:11:26.915Z,-3.1
2018-02-27T00:12:28.298Z,-3.0
2018-02-27T00:13:29.700Z,-2.9
2018-02-27T00:14:31.086Z,-3.0
2018-02-27T00:15:32.467Z,-2.9
2018-02-27T00:16:33.858Z,-3.0
2018-02-27T00:17:35.242Z,-3.0
2018-02-27T00:18:36.621Z,-3.0
2018-02-27T00:19:38.000Z,-3.0
2018-02-27T00:20:39.394Z,-2.9
2018-02-27T00:21:40.788Z,-3.0
2018-02-27T00:22:42.184Z,-3.0
2018-02-27T00:23:43.571Z,-3.0
2018-02-27T00:24:44.951Z,-2.9
2018-02-27T00:25:46.334Z,-3.1
2018-02-27T00:26:47.719Z,-3.0
2018-02-27T00:27:49.117Z,-3.0
2018-02-27T00:28:50.504Z,-3.0
2018-02-27T00:29:51.885Z,-3.0
2018-02-27T00:30:53.269Z,-2.9
2018-02-27T00:31:54.668Z,-2.9
2018-02-27T00:32:56.049Z,-2.8
2018-02-27T00:33:57.432Z,-2.9
2018-02-27T00:34:58.814Z,-3.0
2018-02-27T00:36:00.198Z,-2.8
2018-02-27T00:37:01.585Z,-2.8
2018-02-27T00:38:02.972Z,-2.9
2018-02-27T00:39:04.360Z,-2.9
2018-02-27T00:40:05.742Z,-2.9
2018-02-27T00:41:07.123Z,-2.9
2018-02-27T00:42:08.507Z,-2.9
2018-02-27T00:43:09.892Z,-2.9
2018-02-27T00:44:11.277Z,-2.8
2018-02-27T00:45:12.661Z,-2.8
2018-02-27T00:46:14.049Z,-2.9
2018-02-27T00:47:15.433Z,-2.9
2018-02-27T00:48:16.814Z,-2.9
2018-02-27T00:49:18.198Z,-2.9
2018-02-27T00:50:19.586Z,-2.9
2018-02-27T00:51:20.971Z,-2.9
2018-02-27T00:52:22.360Z,-2.9
2018-02-27T00:53:23.739Z,-2.9
2018-02-27T00:54:25.131Z,-2.8
2018-02-27T00:55:26.515Z,-2.9
2018-02-27T00:56:27.907Z,-2.9
2018-02-27T00:57:29.297Z,-2.9
2018-02-27T00:58:30.683Z,-2.9
2018-02-27T00:59:32.070Z,-2.9
2018-02-27T01:00:33.451Z,-2.9
2018-02-27T01:01:34.875Z,-2.8
2018-02-27T01:02:36.258Z,-2.8
2018-02-27T01:03:37.646Z,-2.9
2018-02-27T01:04:39.027Z,-2.9
2018-02-27T01:05:40.411Z,-2.9
2018-02-27T01:06:41.797Z,-2.9
2018-02-27T01:07:43.181Z,-2.9
2018-02-27T01:08:44.564Z,-2.9
2018-02-27T01:09:45.945Z,-2.8
2018-02-27T01:10:47.331Z,-2.7
2018-02-27T01:11:48.797Z,-2.8
2018-02-27T01:12:50.190Z,-2.7
2018-02-27T01:13:51.574Z,-2.7
2018-02-27T01:14:52.957Z,-2.8
2018-02-27T01:15:54.347Z,-2.7
2018-02-27T01:16:55.726Z,-2.7
2018-02-27T01:17:57.103Z,-2.8
2018-02-27T01:18:58.488Z,-2.7
2018-02-27T01:19:59.875Z,-2.8
2018-02-27T01:21:01.261Z,-2.7
2018-02-27T01:22:02.643Z,-2.8
2018-02-27T01:23:04.033Z,-2.8
2018-02-27T01:24:05.419Z,-2.8
2018-02-27T01:25:06.804Z,-2.9
2018-02-27T01:26:08.185Z,-2.9
2018-02-27T01:27:09.583Z,-2.9
2018-02-27T01:28:10.970Z,-2.9
2018-02-27T01:29:12.350Z,-3.0
2018-02-27T01:30:13.733Z,-2.9
2018-02-27T01:31:15.135Z,-2.9
2018-02-27T01:32:16.515Z,-3.0
2018-02-27T01:33:17.896Z,-2.9
2018-02-27T01:34:19.279Z,-3.0
2018-02-27T01:35:20.679Z,-3.1
2018-02-27T01:36:22.061Z,-3.0
2018-02-27T01:37:23.445Z,-3.1
2018-02-27T01:38:24.845Z,-3.0
2018-02-27T01:39:26.222Z,-3.1
2018-02-27T01:40:27.603Z,-3.1
2018-02-27T01:41:29.002Z,-3.0
2018-02-27T01:42:30.383Z,-3.0
2018-02-27T01:43:31.758Z,-3.0
2018-02-27T01:44:33.141Z,-3.0
2018-02-27T01:45:34.564Z,-3.0
2018-02-27T01:46:35.947Z,-3.1
2018-02-27T01:47:37.330Z,-3.2
2018-02-27T01:48:38.716Z,-3.1
2018-02-27T01:49:40.099Z,-3.1
2018-02-27T01:50:41.483Z,-3.1
2018-02-27T01:51:42.865Z,-3.2
2018-02-27T01:52:44.259Z,-3.2
2018-02-27T01:53:45.642Z,-3.2
2018-02-27T01:54:47.029Z,-3.3
2018-02-27T01:55:48.414Z,-3.2
2018-02-27T01:56:49.799Z,-3.3
2018-02-27T01:57:51.183Z,-3.3
2018-02-27T01:58:52.564Z,-3.3
2018-02-27T01:59:53.948Z,-3.3
2018-02-27T02:00:55.339Z,-3.3
2018-02-27T02:01:56.739Z,-3.3
2018-02-27T02:02:58.143Z,-3.4
2018-02-27T02:03:59.537Z,-3.4
2018-02-27T02:05:00.921Z,-3.3
2018-02-27T02:06:02.304Z,-3.4
2018-02-27T02:07:03.689Z,-3.5
2018-02-27T02:08:05.072Z,-3.4
2018-02-27T02:09:06.456Z,-3.5
2018-02-27T02:10:07.844Z,-3.5
2018-02-27T02:11:09.240Z,-3.5
2018-02-27T02:12:10.623Z,-3.4
2018-02-27T02:13:12.006Z,-3.5
2018-02-27T02:14:13.389Z,-3.5
2018-02-27T02:15:14.773Z,-3.5
2018-02-27T02:16:16.158Z,-3.6
2018-02-27T02:17:17.543Z,-3.6
2018-02-27T02:18:18.952Z,-3.6
2018-02-27T02:19:20.314Z,-3.6
2018-02-27T02:20:21.700Z,-3.6
2018-02-27T02:21:23.085Z,-3.6
2018-02-27T02:22:24.473Z,-3.6
2018-02-27T02:23:25.870Z,-3.7
2018-02-27T02:24:27.254Z,-3.7
2018-02-27T02:25:28.637Z,-3.7
2018-02-27T02:26:30.023Z,-3.7
2018-02-27T02:27:31.408Z,-3.8
2018-02-27T02:28:32.792Z,-3.8
2018-02-27T02:29:34.178Z,-3.7
2018-02-27T02:30:35.561Z,-3.7
2018-02-27T02:31:36.943Z,-3.7
2018-02-27T02:32:38.327Z,-3.7
2018-02-27T02:33:39.711Z,-3.7
2018-02-27T02:34:41.096Z,-3.7
2018-02-27T02:35:42.481Z,-3.7
2018-02-27T02:36:43.861Z,-3.8
2018-02-27T02:37:45.246Z,-3.8
2018-02-27T02:38:46.638Z,-3.8
2018-02-27T02:39:48.024Z,-3.7
2018-02-27T02:40:49.406Z,-3.7
2018-02-27T02:41:50.784Z,-3.8
2018-02-27T02:42:52.170Z,-3.9
2018-02-27T02:43:53.552Z,-3.9
2018-02-27T02:44:54.937Z,-3.8
2018-02-27T02:45:56.321Z,-4.0
2018-02-27T02:46:57.708Z,-3.9
2018-02-27T02:47:59.108Z,-3.9
2018-02-27T02:49:00.492Z,-3.9
2018-02-27T02:50:01.875Z,-3.9
2018-02-27T02:51:03.262Z,-3.9
2018-02-27T02:52:04.735Z,-3.8
2018-02-27T02:53:06.120Z,-3.8
2018-02-27T02:54:07.514Z,-4.0
2018-02-27T02:55:08.889Z,-3.9
2018-02-27T02:56:10.272Z,-4.0
2018-02-27T02:57:11.657Z,-3.9
2018-02-27T02:58:13.044Z,-4.0
2018-02-27T02:59:14.437Z,-3.9
2018-02-27T03:00:15.812Z,-4.0
2018-02-27T03:01:17.198Z,-4.0
2018-02-27T03:02:18.581Z,-4.1
2018-02-27T03:03:19.963Z,-4.1
2018-02-27T03:04:21.364Z,-4.1
2018-02-27T03:05:22.744Z,-4.1
2018-02-27T03:06:24.133Z,-4.1
2018-02-27T03:07:25.517Z,-4.1
2018-02-27T03:08:26.931Z,-4.2
2018-02-27T03:09:28.311Z,-4.1
2018-02-27T03:10:29.697Z,-4.1
2018-02-27T03:11:31.081Z,-4.1
2018-02-27T03:12:32.475Z,-4.0
2018-02-27T03:13:33.856Z,-4.1
2018-02-27T03:14:35.249Z,-4.1
2018-02-27T03:15:36.661Z,-4.1
2018-02-27T03:16:38.035Z,-4.2
2018-02-27T03:17:39.420Z,-4.2
2018-02-27T03:18:40.803Z,-4.2
2018-02-27T03:19:42.204Z,-4.2
2018-02-27T03:20:43.585Z,-4.3
2018-02-27T03:21:44.969Z,-4.3
2018-02-27T03:22:46.357Z,-4.2
2018-02-27T03:23:49.080Z,-4.3
2018-02-27T03:24:50.463Z,-4.2
2018-02-27T03:25:51.855Z,-4.3
2018-02-27T03:26:53.241Z,-4.2
2018-02-27T03:27:54.624Z,-4.3
2018-02-27T03:28:56.007Z,-4.3
2018-02-27T03:29:57.390Z,-4.2
2018-02-27T03:30:58.774Z,-4.3
2018-02-27T03:32:00.181Z,-4.3
2018-02-27T03:33:01.588Z,-4.2
2018-02-27T03:34:02.944Z,-4.3
2018-02-27T03:35:04.334Z,-4.3
2018-02-27T03:36:05.710Z,-4.3
2018-02-27T03:37:07.100Z,-4.3
2018-02-27T03:38:08.482Z,-4.3
2018-02-27T03:39:09.865Z,-4.3
2018-02-27T03:40:11.269Z,-4.3
2018-02-27T03:41:12.668Z,-4.3
2018-02-27T03:42:14.050Z,-4.4
2018-02-27T03:43:15.435Z,-4.4
2018-02-27T03:44:16.872Z,-4.4
2018-02-27T03:45:18.257Z,-4.5
2018-02-27T03:46:19.638Z,-4.4
2018-02-27T03:47:21.020Z,-4.3
2018-02-27T03:48:22.409Z,-4.4
2018-02-27T03:49:23.796Z,-4.4
2018-02-27T03:50:25.180Z,-4.5
2018-02-27T03:51:26.572Z,-4.5
2018-02-27T03:52:27.943Z,-4.6
2018-02-27T03:53:29.327Z,-4.5
2018-02-27T03:54:30.711Z,-4.5
2018-02-27T03:55:32.111Z,-4.5
2018-02-27T03:56:33.493Z,-4.6
2018-02-27T03:57:34.880Z,-4.5
2018-02-27T03:58:36.262Z,-4.4
2018-02-27T03:59:37.643Z,-4.5
2018-02-27T04:00:39.024Z,-4.5
2018-02-27T04:01:40.405Z,-4.5
2018-02-27T04:02:41.786Z,-4.6
2018-02-27T04:03:43.172Z,-4.6
2018-02-27T04:04:44.557Z,-4.5
2018-02-27T04:05:45.940Z,-4.5
2018-02-27T04:06:47.325Z,-4.6
2018-02-27T04:07:48.704Z,-4.6
2018-02-27T04:08:50.090Z,-4.6
2018-02-27T04:09:51.480Z,-4.5
2018-02-27T04:10:52.867Z,-4.6
2018-02-27T04:11:54.267Z,-4.5
2018-02-27T04:12:55.650Z,-4.6
2018-02-27T04:13:57.049Z,-4.5
2018-02-27T04:14:58.428Z,-4.7
2018-02-27T04:15:59.814Z,-4.6
2018-02-27T04:17:01.195Z,-4.6
2018-02-27T04:18:02.578Z,-4.6
2018-02-27T04:19:03.966Z,-4.6
2018-02-27T04:20:05.352Z,-4.6
2018-02-27T04:21:06.746Z,-4.6
2018-02-27T04:22:08.128Z,-4.6
2018-02-27T04:23:09.512Z,-4.6
2018-02-27T04:24:10.894Z,-4.6
2018-02-27T04:25:12.277Z,-4.7
2018-02-27T04:26:13.660Z,-4.6
2018-02-27T04:27:15.047Z,-4.7
2018-02-27T04:28:16.428Z,-4.6
2018-02-27T04:29:17.809Z,-4.6
2018-02-27T04:30:19.276Z,-4.6
2018-02-27T04:31:20.671Z,-4.8
2018-02-27T04:32:22.056Z,-4.8
2018-02-27T04:33:23.456Z,-4.8
2018-02-27T04:34:24.854Z,-4.8
2018-02-27T04:35:26.234Z,-4.8
2018-02-27T04:36:27.615Z,-4.7
2018-02-27T04:37:28.999Z,-4.7
2018-02-27T04:38:30.382Z,-4.7
2018-02-27T04:39:31.775Z,-4.6
2018-02-27T04:40:33.162Z,-4.7
2018-02-27T04:41:34.553Z,-4.8
2018-02-27T04:42:35.935Z,-4.7
2018-02-27T04:43:37.316Z,-4.8
2018-02-27T04:44:38.709Z,-4.8
2018-02-27T04:45:40.094Z,-4.8
2018-02-27T04:46:41.476Z,-4.8
2018-02-27T04:47:42.880Z,-4.8
2018-02-27T04:48:44.266Z,-4.7
2018-02-27T04:49:45.652Z,-4.8
2018-02-27T04:50:47.031Z,-4.8
2018-02-27T04:51:48.422Z,-4.7
2018-02-27T04:52:49.806Z,-4.7
2018-02-27T04:53:51.192Z,-4.8
2018-02-27T04:54:52.576Z,-4.9
2018-02-27T04:55:53.962Z,-4.8
2018-02-27T04:56:55.344Z,-4.8
2018-02-27T04:57:56.737Z,-4.8
2018-02-27T04:58:58.120Z,-4.8
2018-02-27T04:59:59.503Z,-4.9
2018-02-27T05:01:00.890Z,-4.8
2018-02-27T05:02:02.277Z,-4.8
2018-02-27T05:03:03.665Z,-4.8
2018-02-27T05:04:05.042Z,-4.8
2018-02-27T05:05:06.425Z,-4.8
2018-02-27T05:06:07.808Z,-4.9
2018-02-27T05:07:09.200Z,-4.9
2018-02-27T05:08:10.585Z,-4.9
2018-02-27T05:09:11.977Z,-4.9
2018-02-27T05:10:13.359Z,-5.0
2018-02-27T05:11:14.738Z,-4.9
2018-02-27T05:12:16.122Z,-4.9
2018-02-27T05:13:17.523Z,-4.9
2018-02-27T05:14:18.906Z,-4.9
2018-02-27T05:15:20.291Z,-4.9
2018-02-27T05:16:21.784Z,-4.9
2018-02-27T05:17:23.112Z,-4.8
2018-02-27T05:18:24.493Z,-4.9
2018-02-27T05:19:25.875Z,-4.9
2018-02-27T05:20:27.270Z,-4.9
2018-02-27T05:21:28.677Z,-4.9
2018-02-27T05:22:30.072Z,-4.9
2018-02-27T05:23:31.456Z,-4.9
2018-02-27T05:24:32.878Z,-4.9
2018-02-27T05:25:34.260Z,-4.9
2018-02-27T05:26:35.637Z,-5.0
2018-02-27T05:27:37.021Z,-4.9
2018-02-27T05:28:38.403Z,-5.0
2018-02-27T05:29:39.791Z,-5.0
2018-02-27T05:30:41.170Z,-5.0
2018-02-27T05:31:42.579Z,-5.0
2018-02-27T05:32:43.957Z,-5.0
2018-02-27T05:33:45.337Z,-4.9
2018-02-27T05:34:46.738Z,-5.1
2018-02-27T05:35:48.147Z,-5.1
2018-02-27T05:36:49.531Z,-5.1
2018-02-27T05:37:50.918Z,-5.0
2018-02-27T05:38:52.298Z,-5.1
2018-02-27T05:39:53.684Z,-5.1
2018-02-27T05:40:55.108Z,-5.1
2018-02-27T05:41:56.451Z,-5.1
2018-02-27T05:42:57.849Z,-5.1
2018-02-27T05:43:59.235Z,-5.2
2018-02-27T05:45:00.621Z,-5.2
2018-02-27T05:46:02.014Z,-5.1
2018-02-27T05:47:03.399Z,-5.2
2018-02-27T05:48:04.783Z,-5.2
2018-02-27T05:49:06.162Z,-5.2
2018-02-27T05:50:07.558Z,-5.1
2018-02-27T05:51:08.942Z,-5.2
2018-02-27T05:52:10.331Z,-5.2
2018-02-27T05:53:11.728Z,-5.1
2018-02-27T05:54:13.109Z,-5.0
2018-02-27T05:55:14.495Z,-5.0
2018-02-27T05:56:15.878Z,-5.1
2018-02-27T05:57:17.272Z,-5.1
2018-02-27T05:58:18.656Z,-5.1
2018-02-27T05:59:20.038Z,-5.1
2018-02-27T06:00:21.424Z,-5.1
2018-02-27T06:01:22.805Z,-5.1
2018-02-27T06:02:24.197Z,-5.1
2018-02-27T06:03:25.573Z,-5.1
2018-02-27T06:04:26.976Z,-5.0
2018-02-27T06:05:28.359Z,-5.1
2018-02-27T06:06:29.743Z,-5.1
2018-02-27T06:07:31.126Z,-5.2
2018-02-27T06:08:32.519Z,-5.1
2018-02-27T06:09:33.912Z,-5.1
2018-02-27T06:10:35.296Z,-5.1
2018-02-27T06:11:36.733Z,-5.2
2018-02-27T06:12:38.127Z,-5.2
2018-02-27T06:13:39.511Z,-5.1
2018-02-27T06:14:40.896Z,-5.1
2018-02-27T06:15:42.297Z,-5.2
2018-02-27T06:16:43.682Z,-5.1
2018-02-27T06:17:45.069Z,-5.2
2018-02-27T06:18:46.449Z,-5.1
2018-02-27T06:19:47.830Z,-5.2
2018-02-27T06:20:49.216Z,-5.2
2018-02-27T06:21:50.602Z,-5.2
2018-02-27T06:22:51.996Z,-5.2
2018-02-27T06:23:53.380Z,-5.2
2018-02-27T06:24:54.763Z,-5.2
2018-02-27T06:25:56.148Z,-5.2
2018-02-27T06:26:57.541Z,-5.1
2018-02-27T06:27:58.928Z,-5.1
2018-02-27T06:29:00.312Z,-5.1
2018-02-27T06:30:01.696Z,-5.0
2018-02-27T06:31:03.079Z,-5.1
2018-02-27T06:32:04.468Z,-5.1
2018-02-27T06:33:05.857Z,-5.1
2018-02-27T06:34:07.254Z,-5.1
2018-02-27T06:35:08.638Z,-5.2
2018-02-27T06:36:10.034Z,-5.2
2018-02-27T06:37:11.417Z,-5.2
2018-02-27T06:38:12.804Z,-5.2
2018-02-27T06:39:14.186Z,-5.2
2018-02-27T06:40:15.573Z,-5.2
2018-02-27T06:41:16.961Z,-5.1
2018-02-27T06:42:18.350Z,-5.2
2018-02-27T06:43:19.737Z,-5.2
2018-02-27T06:44:21.123Z,-5.2
2018-02-27T06:45:22.518Z,-5.1
2018-02-27T06:46:23.902Z,-5.1
2018-02-27T06:47:25.290Z,-5.1
2018-02-27T06:48:26.754Z,-5.2
2018-02-27T06:49:28.101Z,-5.1
2018-02-27T06:50:29.467Z,-5.2
2018-02-27T06:51:30.852Z,-5.2
2018-02-27T06:52:32.262Z,-5.1
2018-02-27T06:53:33.650Z,-5.1
2018-02-27T06:54:35.035Z,-5.1
2018-02-27T06:55:36.423Z,-5.0
2018-02-27T06:56:37.820Z,-5.1
2018-02-27T06:57:39.210Z,-5.1
2018-02-27T06:58:40.596Z,-5.1
2018-02-27T06:59:41.999Z,-5.1
2018-02-27T07:00:43.412Z,-5.0
2018-02-27T07:01:44.788Z,-5.0
2018-02-27T07:02:46.175Z,-5.0
2018-02-27T07:03:47.589Z,-5.0
2018-02-27T07:04:48.968Z,-5.1
2018-02-27T07:05:50.354Z,-5.0
2018-02-27T07:06:51.745Z,-4.9
2018-02-27T07:07:53.132Z,-4.9
2018-02-27T07:08:54.525Z,-5.0
2018-02-27T07:09:55.914Z,-4.9
2018-02-27T07:10:57.298Z,-5.0
2018-02-27T07:11:58.685Z,-5.0
2018-02-27T07:13:00.073Z,-4.9
2018-02-27T07:14:01.459Z,-4.9
2018-02-27T07:15:02.844Z,-4.9
2018-02-27T07:16:04.230Z,-4.9
2018-02-27T07:17:05.617Z,-4.8
2018-02-27T07:18:07.010Z,-4.8
2018-02-27T07:19:08.569Z,-4.8
2018-02-27T07:20:09.962Z,-4.8
2018-02-27T07:21:11.351Z,-4.7
2018-02-27T07:22:12.743Z,-4.8
2018-02-27T07:23:14.122Z,-4.7
2018-02-27T07:24:15.512Z,-4.8
2018-02-27T07:25:16.918Z,-4.9
2018-02-27T07:26:18.305Z,-4.7
2018-02-27T07:27:19.700Z,-4.8
2018-02-27T07:28:21.075Z,-4.8
2018-02-27T07:29:22.463Z,-4.8
2018-02-27T07:30:23.849Z,-4.6
2018-02-27T07:31:25.252Z,-4.7
2018-02-27T07:32:26.642Z,-4.6
2018-02-27T07:33:28.036Z,-4.6
2018-02-27T07:34:29.417Z,-4.6
2018-02-27T07:35:30.804Z,-4.6
2018-02-27T07:36:32.198Z,-4.5
2018-02-27T07:37:33.584Z,-4.5
2018-02-27T07:38:34.991Z,-4.6
2018-02-27T07:39:36.384Z,-4.6
2018-02-27T07:40:37.764Z,-4.5
2018-02-27T07:41:39.148Z,-4.5
2018-02-27T07:42:40.531Z,-4.6
2018-02-27T07:43:41.925Z,-4.5
2018-02-27T07:44:43.311Z,-4.5
2018-02-27T07:45:44.710Z,-4.5
2018-02-27T07:46:46.134Z,-4.5
2018-02-27T07:47:47.485Z,-4.4
2018-02-27T07:48:48.870Z,-4.4
2018-02-27T07:49:50.256Z,-4.3
2018-02-27T07:50:51.647Z,-4.3
2018-02-27T07:51:53.039Z,-4.3
2018-02-27T07:52:54.494Z,-4.3
2018-02-27T07:53:55.969Z,-4.3
2018-02-27T07:54:57.358Z,-4.3
2018-02-27T07:55:58.750Z,-4.3
2018-02-27T07:57:00.135Z,-4.3
2018-02-27T07:58:01.522Z,-4.3
2018-02-27T07:59:02.910Z,-4.2
2018-02-27T08:00:04.296Z,-4.2
2018-02-27T08:01:05.684Z,-4.2
2018-02-27T08:02:07.163Z,-4.2
2018-02-27T08:03:08.541Z,-4.1
2018-02-27T08:04:09.976Z,-3.9
2018-02-27T08:05:11.342Z,-3.7
2018-02-27T08:06:12.729Z,-3.6
2018-02-27T08:07:14.227Z,-3.4
2018-02-27T08:08:15.649Z,-3.4
2018-02-27T08:09:17.089Z,-3.2
2018-02-27T08:10:18.474Z,-3.2
2018-02-27T08:11:19.860Z,-3.2
2018-02-27T08:12:21.257Z,-3.2
2018-02-27T08:13:22.640Z,-3.2
2018-02-27T08:14:24.034Z,-3.0
2018-02-27T08:15:25.447Z,-3.1
2018-02-27T08:16:26.838Z,-3.1
2018-02-27T08:17:28.226Z,-3.0
2018-02-27T08:18:29.648Z,-2.9
2018-02-27T08:19:31.040Z,-2.8
2018-02-27T08:20:32.477Z,-2.7
2018-02-27T08:21:33.899Z,-2.7
2018-02-27T08:22:35.292Z,-2.8
2018-02-27T08:23:36.683Z,-2.7
2018-02-27T08:24:38.068Z,-2.6
2018-02-27T08:25:39.457Z,-2.6
2018-02-27T08:26:40.845Z,-2.5
2018-02-27T08:27:42.243Z,-2.5
2018-02-27T08:28:43.638Z,-2.6
2018-02-27T08:29:45.025Z,-2.5
2018-02-27T08:30:46.416Z,-2.5
2018-02-27T08:31:47.838Z,-2.5
2018-02-27T08:32:49.289Z,-2.6
2018-02-27T08:33:50.682Z,-2.7
2018-02-27T08:34:52.087Z,-2.7
2018-02-27T08:35:53.494Z,-2.8
2018-02-27T08:36:54.882Z,-2.7
2018-02-27T08:37:56.272Z,-2.6
2018-02-27T08:38:57.660Z,-2.6
2018-02-27T08:39:59.048Z,-2.7
2018-02-27T08:41:00.434Z,-2.6
2018-02-27T08:42:01.821Z,-2.7
2018-02-27T08:43:03.343Z,-2.6
2018-02-27T08:44:04.754Z,-2.6
2018-02-27T08:45:06.140Z,-2.5
2018-02-27T08:46:07.533Z,-2.6
2018-02-27T08:47:08.919Z,-2.5
2018-02-27T08:48:10.308Z,-2.5
2018-02-27T08:49:11.697Z,-2.5
2018-02-27T08:50:13.117Z,-2.5
2018-02-27T08:51:14.515Z,-2.6
2018-02-27T08:52:15.902Z,-2.6
2018-02-27T08:53:17.287Z,-2.5
2018-02-27T08:54:18.679Z,-2.4
2018-02-27T08:55:20.060Z,-2.4
2018-02-27T08:56:21.448Z,-2.4
2018-02-27T08:57:22.850Z,-2.3
2018-02-27T08:58:24.236Z,-2.3
2018-02-27T08:59:25.630Z,-2.3
2018-02-27T09:00:27.047Z,-2.3
2018-02-27T09:01:28.433Z,-2.3
2018-02-27T09:02:29.826Z,-2.2
2018-02-27T09:03:31.211Z,-2.2
2018-02-27T09:04:32.604Z,-2.2
2018-02-27T09:05:33.994Z,-2.2
2018-02-27T09:06:35.386Z,-2.2
2018-02-27T09:07:36.775Z,-2.3
2018-02-27T09:08:38.163Z,-2.2
2018-02-27T09:09:39.552Z,-2.2
2018-02-27T09:10:40.940Z,-2.2
2018-02-27T09:11:42.328Z,-2.1
2018-02-27T09:12:43.721Z,-2.0
2018-02-27T09:13:45.113Z,-1.9
2018-02-27T09:14:46.567Z,-1.9
2018-02-27T09:15:47.885Z,-1.8
2018-02-27T09:16:49.273Z,-1.7
2018-02-27T09:17:50.663Z,-1.7
2018-02-27T09:18:52.070Z,-1.6
2018-02-27T09:19:53.458Z,-1.6
2018-02-27T09:20:54.849Z,-1.6
2018-02-27T09:21:56.244Z,-1.7
2018-02-27T09:22:57.628Z,-1.6
2018-02-27T09:23:59.019Z,-1.5
2018-02-27T09:25:00.411Z,-1.6
2018-02-27T09:26:01.801Z,-1.4
2018-02-27T09:27:03.210Z,-1.4
2018-02-27T09:28:04.601Z,-1.2
2018-02-27T09:29:05.990Z,-1.2
2018-02-27T09:30:07.396Z,-1.2
2018-02-27T09:31:08.877Z,-1.1
2018-02-27T09:32:10.310Z,-1.0
2018-02-27T09:33:11.702Z,-0.9
2018-02-27T09:34:13.091Z,-0.8
2018-02-27T09:35:14.483Z,-0.8
2018-02-27T09:36:15.880Z,-0.9
2018-02-27T09:37:17.285Z,-0.8
2018-02-27T09:38:18.678Z,-0.8
2018-02-27T09:39:20.065Z,-0.8
2018-02-27T09:40:21.461Z,-0.7
2018-02-27T09:41:22.852Z,-0.8
2018-02-27T09:42:24.245Z,-0.8
2018-02-27T09:43:25.633Z,-0.8
2018-02-27T09:44:27.044Z,-0.7
2018-02-27T09:45:28.426Z,-0.5
2018-02-27T09:46:29.817Z,-0.4
2018-02-27T09:47:31.212Z,-0.0
2018-02-27T09:48:32.603Z,0.4
2018-02-27T09:49:33.992Z,0.7
2018-02-27T09:50:35.380Z,0.9
2018-02-27T09:51:36.773Z,1.3
2018-02-27T09:52:38.157Z,1.7
2018-02-27T09:53:39.554Z,1.9
2018-02-27T09:54:40.942Z,2.3
2018-02-27T09:55:42.350Z,2.5
2018-02-27T09:56:43.745Z,2.8
2018-02-27T09:57:45.137Z,3.4
2018-02-27T09:58:46.529Z,3.9
2018-02-27T09:59:47.918Z,4.4
2018-02-27T10:00:49.311Z,4.8
2018-02-27T10:01:50.705Z,5.1
2018-02-27T10:02:52.104Z,5.1
2018-02-27T10:03:53.497Z,5.3
2018-02-27T10:04:54.887Z,5.7
2018-02-27T10:05:56.282Z,5.7
2018-02-27T10:06:57.689Z,6.2
2018-02-27T10:07:59.082Z,6.3
2018-02-27T10:09:00.480Z,6.3
2018-02-27T10:10:01.880Z,6.4
2018-02-27T10:11:03.282Z,6.5
2018-02-27T10:12:04.671Z,6.9
2018-02-27T10:13:06.070Z,7.1
2018-02-27T10:14:07.472Z,7.2
2018-02-27T10:15:08.869Z,7.7
2018-02-27T10:16:10.265Z,8.1
2018-02-27T10:17:11.720Z,8.2
2018-02-27T10:18:13.065Z,8.2
2018-02-27T10:19:14.516Z,7.8
2018-02-27T10:20:15.902Z,8.1
2018-02-27T10:21:17.323Z,8.3
2018-02-27T10:22:18.725Z,8.3
2018-02-27T10:23:20.124Z,8.4
2018-02-27T10:24:21.519Z,8.5
2018-02-27T10:25:22.919Z,9.0
2018-02-27T10:26:24.318Z,9.1
2018-02-27T10:27:25.774Z,9.2
2018-02-27T10:28:27.111Z,9.0
2018-02-27T10:29:28.507Z,9.1
2018-02-27T10:30:29.909Z,9.0
2018-02-27T10:31:31.337Z,9.0
2018-02-27T10:32:32.741Z,9.3
2018-02-27T10:33:34.137Z,9.7
2018-02-27T10:34:35.536Z,9.7
2018-02-27T10:35:36.949Z,9.5
2018-02-27T10:36:38.366Z,9.8
2018-02-27T10:37:39.771Z,10.4
2018-02-27T10:38:41.173Z,9.8
2018-02-27T10:39:42.574Z,9.4
2018-02-27T10:40:43.969Z,9.5
2018-02-27T10:41:45.377Z,10.0
2018-02-27T10:42:46.777Z,10.5
2018-02-27T10:43:48.187Z,10.6
2018-02-27T10:44:49.586Z,11.0
2018-02-27T10:45:50.988Z,10.8
2018-02-27T10:46:52.396Z,11.3
2018-02-27T10:47:53.797Z,11.7
2018-02-27T10:48:55.196Z,12.0
2018-02-27T10:49:56.599Z,12.4
2018-02-27T10:50:58.001Z,12.5
2018-02-27T10:51:59.404Z,12.4
2018-02-27T10:53:00.810Z,12.9
2018-02-27T10:54:02.214Z,13.1
2018-02-27T10:55:03.638Z,13.1
2018-02-27T10:56:05.091Z,12.6
2018-02-27T10:57:06.513Z,12.8
2018-02-27T10:58:07.912Z,13.2
2018-02-27T10:59:09.319Z,13.6
2018-02-27T11:00:10.722Z,13.5
2018-02-27T11:01:12.129Z,13.6
2018-02-27T11:02:13.534Z,13.5
2018-02-27T11:03:14.931Z,13.8
2018-02-27T11:04:16.331Z,13.7
2018-02-27T11:05:17.943Z,13.6
2018-02-27T11:06:19.416Z,13.4
2018-02-27T11:07:20.833Z,13.3
2018-02-27T11:08:22.257Z,13.5
2018-02-27T11:09:23.679Z,13.7
2018-02-27T11:10:25.082Z,14.0
2018-02-27T11:11:26.486Z,14.2
2018-02-27T11:12:27.887Z,14.2
2018-02-27T11:13:29.287Z,13.8
2018-02-27T11:14:30.689Z,13.9
2018-02-27T11:15:32.094Z,13.5
2018-02-27T11:16:33.494Z,12.9
2018-02-27T11:17:34.895Z,12.3
2018-02-27T11:18:36.294Z,12.1
2018-02-27T11:19:37.704Z,11.8
2018-02-27T11:20:39.099Z,10.9
2018-02-27T11:21:40.503Z,10.8
2018-02-27T11:22:41.927Z,10.7
2018-02-27T11:23:43.308Z,10.2
2018-02-27T11:24:44.707Z,9.9
2018-02-27T11:25:46.104Z,9.5
2018-02-27T11:26:47.524Z,9.5
2018-02-27T11:27:48.926Z,9.3
2018-02-27T11:28:50.325Z,9.0
2018-02-27T11:29:51.721Z,8.7
2018-02-27T11:30:53.128Z,8.4
2018-02-27T11:31:54.522Z,9.2
2018-02-27T11:32:55.920Z,9.8
2018-02-27T11:33:57.315Z,10.2
2018-02-27T11:34:58.717Z,10.5
2018-02-27T11:36:00.116Z,11.2
2018-02-27T11:37:01.509Z,11.3
2018-02-27T11:38:02.912Z,11.2
2018-02-27T11:39:04.305Z,10.9
2018-02-27T11:40:05.703Z,11.2
2018-02-27T11:41:07.108Z,11.0
2018-02-27T11:42:08.505Z,10.5
2018-02-27T11:43:09.892Z,10.2
2018-02-27T11:44:11.290Z,10.2
2018-02-27T11:45:12.677Z,9.6
2018-02-27T11:46:14.072Z,9.4
2018-02-27T11:47:15.472Z,9.3
2018-02-27T11:48:16.872Z,8.9
2018-02-27T11:49:18.298Z,8.4
2018-02-27T11:50:19.684Z,7.9
2018-02-27T11:51:21.113Z,7.8
2018-02-27T11:52:22.519Z,7.5
2018-02-27T11:53:23.910Z,7.4
2018-02-27T11:54:25.304Z,6.9
2018-02-27T11:55:26.694Z,6.6
2018-02-27T11:56:28.103Z,6.5
2018-02-27T11:57:29.486Z,6.4
2018-02-27T11:58:30.880Z,6.2
2018-02-27T11:59:32.281Z,5.9
2018-02-27T12:00:33.686Z,6.0
2018-02-27T12:01:35.078Z,6.0
2018-02-27T12:02:36.471Z,6.0
2018-02-27T12:03:37.889Z,6.0
2018-02-27T12:04:39.281Z,6.2
2018-02-27T12:05:40.679Z,6.3
2018-02-27T12:06:42.069Z,6.4
2018-02-27T12:07:43.463Z,6.2
2018-02-27T12:08:44.855Z,5.9
2018-02-27T12:09:46.248Z,5.9
2018-02-27T12:10:47.642Z,5.9
2018-02-27T12:11:49.034Z,5.2
2018-02-27T12:12:50.432Z,4.9
2018-02-27T12:13:51.831Z,4.9
2018-02-27T12:14:53.213Z,4.8
2018-02-27T12:15:54.606Z,4.9
2018-02-27T12:16:56.001Z,4.8
2018-02-27T12:17:57.394Z,4.7
2018-02-27T12:18:58.785Z,4.8
2018-02-27T12:20:00.177Z,4.8
2018-02-27T12:21:01.571Z,4.9
2018-02-27T12:22:02.963Z,5.0
2018-02-27T12:23:04.352Z,5.2
2018-02-27T12:24:05.745Z,5.2
2018-02-27T12:25:07.141Z,5.2
2018-02-27T12:26:08.534Z,5.1
2018-02-27T12:27:09.931Z,5.0
2018-02-27T12:28:11.316Z,5.2
2018-02-27T12:29:12.712Z,5.4
2018-02-27T12:30:14.112Z,5.3
2018-02-27T12:31:15.495Z,5.4
2018-02-27T12:32:16.889Z,5.4
2018-02-27T12:33:18.309Z,5.3
2018-02-27T12:34:19.705Z,5.4
2018-02-27T12:35:21.094Z,5.4
2018-02-27T12:36:22.644Z,5.4
2018-02-27T12:37:24.038Z,5.4
2018-02-27T12:38:25.429Z,5.2
2018-02-27T12:39:26.820Z,4.9
2018-02-27T12:40:28.213Z,4.7
2018-02-27T12:41:29.604Z,4.7
2018-02-27T12:42:30.994Z,4.6
2018-02-27T12:43:32.385Z,4.7
2018-02-27T12:44:33.778Z,4.5
2018-02-27T12:45:35.170Z,4.6
2018-02-27T12:46:36.562Z,4.7
2018-02-27T12:47:37.973Z,4.7
2018-02-27T12:48:39.365Z,4.8
2018-02-27T12:49:40.753Z,4.8
2018-02-27T12:50:42.162Z,4.9
2018-02-27T12:51:43.569Z,5.1
2018-02-27T12:52:44.960Z,5.2
2018-02-27T12:53:46.351Z,5.3
2018-02-27T12:54:47.752Z,5.3
2018-02-27T12:55:49.143Z,5.2
2018-02-27T12:56:50.532Z,5.1
2018-02-27T12:57:51.934Z,5.4
2018-02-27T12:58:53.337Z,5.2
2018-02-27T12:59:54.732Z,4.8
2018-02-27T13:00:56.123Z,4.9
2018-02-27T13:01:57.516Z,5.1
2018-02-27T13:02:58.907Z,5.1
2018-02-27T13:04:00.297Z,5.1
2018-02-27T13:05:01.751Z,5.2
2018-02-27T13:06:03.082Z,5.3
2018-02-27T13:07:04.480Z,5.3
2018-02-27T13:08:05.940Z,5.2
2018-02-27T13:09:07.335Z,5.0
2018-02-27T13:10:08.730Z,4.6
2018-02-27T13:11:10.125Z,4.2
2018-02-27T13:12:11.511Z,4.2
2018-02-27T13:13:12.901Z,4.6
2018-02-27T13:14:14.291Z,4.8
2018-02-27T13:15:15.684Z,5.0
2018-02-27T13:16:17.088Z,5.3
2018-02-27T13:17:18.510Z,5.3
2018-02-27T13:18:19.901Z,5.2
2018-02-27T13:19:21.287Z,5.4
2018-02-27T13:20:22.681Z,5.3
2018-02-27T13:21:24.066Z,5.0
2018-02-27T13:22:25.535Z,5.1
2018-02-27T13:23:26.938Z,5.0
2018-02-27T13:24:28.331Z,5.0
2018-02-27T13:25:29.722Z,5.3
2018-02-27T13:26:31.111Z,5.3
2018-02-27T13:27:32.507Z,5.5
2018-02-27T13:28:33.900Z,5.6
2018-02-27T13:29:35.280Z,5.4
2018-02-27T13:30:36.670Z,5.4
2018-02-27T13:31:38.084Z,5.1
2018-02-27T13:32:39.476Z,4.9
2018-02-27T13:33:40.870Z,4.9
2018-02-27T13:34:42.247Z,4.8
2018-02-27T13:35:43.637Z,4.7
2018-02-27T13:36:45.031Z,4.8
2018-02-27T13:37:46.504Z,4.9
2018-02-27T13:38:47.904Z,5.1
2018-02-27T13:39:49.294Z,4.9
2018-02-27T13:40:50.695Z,5.1
2018-02-27T13:41:52.145Z,5.4
2018-02-27T13:42:53.500Z,5.3